sensor_id;sensor_type;location;lat;lon;timestamp;temperature;humidity
35700;DHT22;21818;51.078;12.108;2023-02-03T00:01:43;10.00;79.30
35700;DHT22;21818;51.078;12.108;2023-02-03T00:04:09;10.00;79.60
35700;DHT22;21818;51.078;12.108;2023-02-03T00:06:34;10.10;79.40
35700;DHT22;21818;51.078;12.108;2023-02-03T00:09:00;10.10;79.50
35700;DHT22;21818;51.078;12.108;2023-02-03T00:11:28;10.10;79.30
35700;DHT22;21818;51.078;12.108;2023-02-03T00:13:54;10.10;79.30
35700;DHT22;21818;51.078;12.108;2023-02-03T00:16:19;10.10;79.50
35700;DHT22;21818;51.078;12.108;2023-02-03T00:18:45;10.10;79.40
35700;DHT22;21818;51.078;12.108;2023-02-03T00:21:11;10.20;79.50
35700;DHT22;21818;51.078;12.108;2023-02-03T00:23:38;10.10;79.30
35700;DHT22;21818;51.078;12.108;2023-02-03T00:26:09;10.10;79.60
35700;DHT22;21818;51.078;12.108;2023-02-03T00:28:35;10.00;79.70
35700;DHT22;21818;51.078;12.108;2023-02-03T00:31:00;9.90;79.80
35700;DHT22;21818;51.078;12.108;2023-02-03T00:33:26;9.90;79.80
35700;DHT22;21818;51.078;12.108;2023-02-03T00:35:52;10.00;80.10
35700;DHT22;21818;51.078;12.108;2023-02-03T00:38:17;10.00;80.00
35700;DHT22;21818;51.078;12.108;2023-02-03T00:40:51;10.10;79.90
35700;DHT22;21818;51.078;12.108;2023-02-03T00:43:16;10.20;80.20
35700;DHT22;21818;51.078;12.108;2023-02-03T00:45:42;10.20;80.20
35700;DHT22;21818;51.078;12.108;2023-02-03T00:48:07;10.20;80.30
35700;DHT22;21818;51.078;12.108;2023-02-03T00:50:33;10.20;80.40
35700;DHT22;21818;51.078;12.108;2023-02-03T00:52:59;10.30;80.30
35700;DHT22;21818;51.078;12.108;2023-02-03T00:55:24;10.30;80.30
35700;DHT22;21818;51.078;12.108;2023-02-03T00:57:50;10.20;80.40
35700;DHT22;21818;51.078;12.108;2023-02-03T01:00:16;10.20;80.50
35700;DHT22;21818;51.078;12.108;2023-02-03T01:02:42;10.20;80.60
35700;DHT22;21818;51.078;12.108;2023-02-03T01:05:07;10.20;80.70
35700;DHT22;21818;51.078;12.108;2023-02-03T01:07:33;10.20;80.70
35700;DHT22;21818;51.078;12.108;2023-02-03T01:09:58;10.20;80.70
35700;DHT22;21818;51.078;12.108;2023-02-03T01:12:24;10.20;80.80
35700;DHT22;21818;51.078;12.108;2023-02-03T01:14:49;10.20;80.90
35700;DHT22;21818;51.078;12.108;2023-02-03T01:17:15;10.20;80.90
35700;DHT22;21818;51.078;12.108;2023-02-03T01:19:41;10.20;81.00
35700;DHT22;21818;51.078;12.108;2023-02-03T01:22:06;10.10;81.10
35700;DHT22;21818;51.078;12.108;2023-02-03T01:24:32;10.20;81.20
35700;DHT22;21818;51.078;12.108;2023-02-03T01:26:57;10.20;81.50
35700;DHT22;21818;51.078;12.108;2023-02-03T01:29:23;10.30;81.20
35700;DHT22;21818;51.078;12.108;2023-02-03T01:31:48;10.30;81.20
35700;DHT22;21818;51.078;12.108;2023-02-03T01:34:15;10.30;81.30
35700;DHT22;21818;51.078;12.108;2023-02-03T01:36:42;10.30;81.40
35700;DHT22;21818;51.078;12.108;2023-02-03T01:39:09;10.30;81.30
35700;DHT22;21818;51.078;12.108;2023-02-03T01:41:37;10.30;81.50
35700;DHT22;21818;51.078;12.108;2023-02-03T01:44:40;10.30;81.60
35700;DHT22;21818;51.078;12.108;2023-02-03T01:47:35;10.30;81.80
35700;DHT22;21818;51.078;12.108;2023-02-03T01:52:34;10.30;81.60
35700;DHT22;21818;51.078;12.108;2023-02-03T01:55:02;10.30;81.80
35700;DHT22;21818;51.078;12.108;2023-02-03T01:58:38;10.30;81.90
35700;DHT22;21818;51.078;12.108;2023-02-03T02:00:57;10.20;82.00
35700;DHT22;21818;51.078;12.108;2023-02-03T02:03:30;10.20;81.90
35700;DHT22;21818;51.078;12.108;2023-02-03T02:06:04;10.20;82.30
35700;DHT22;21818;51.078;12.108;2023-02-03T02:08:30;10.20;82.30
35700;DHT22;21818;51.078;12.108;2023-02-03T02:11:00;10.10;82.40
35700;DHT22;21818;51.078;12.108;2023-02-03T02:13:27;10.10;82.40
35700;DHT22;21818;51.078;12.108;2023-02-03T02:38:57;10.10;83.00
35700;DHT22;21818;51.078;12.108;2023-02-03T02:41:32;10.20;83.00
35700;DHT22;21818;51.078;12.108;2023-02-03T02:44:10;10.30;83.00
35700;DHT22;21818;51.078;12.108;2023-02-03T02:49:11;10.50;82.90
35700;DHT22;21818;51.078;12.108;2023-02-03T02:51:38;10.60;82.90
35700;DHT22;21818;51.078;12.108;2023-02-03T02:54:06;10.50;83.00
35700;DHT22;21818;51.078;12.108;2023-02-03T02:56:34;10.60;83.10
35700;DHT22;21818;51.078;12.108;2023-02-03T02:59:02;10.60;83.10
35700;DHT22;21818;51.078;12.108;2023-02-03T03:01:29;10.60;83.20
35700;DHT22;21818;51.078;12.108;2023-02-03T03:03:56;10.70;83.20
35700;DHT22;21818;51.078;12.108;2023-02-03T03:06:27;10.70;83.20
35700;DHT22;21818;51.078;12.108;2023-02-03T03:09:21;10.70;83.30
35700;DHT22;21818;51.078;12.108;2023-02-03T03:12:07;10.80;83.40
35700;DHT22;21818;51.078;12.108;2023-02-03T03:14:35;10.70;83.60
35700;DHT22;21818;51.078;12.108;2023-02-03T03:17:05;10.80;83.60
35700;DHT22;21818;51.078;12.108;2023-02-03T03:19:34;10.80;83.60
35700;DHT22;21818;51.078;12.108;2023-02-03T03:22:04;10.90;83.70
35700;DHT22;21818;51.078;12.108;2023-02-03T03:24:35;10.90;83.80
35700;DHT22;21818;51.078;12.108;2023-02-03T03:27:19;10.90;83.90
35700;DHT22;21818;51.078;12.108;2023-02-03T03:32:16;10.90;84.20
35700;DHT22;21818;51.078;12.108;2023-02-03T03:34:41;10.90;84.30
35700;DHT22;21818;51.078;12.108;2023-02-03T03:37:26;10.90;84.40
35700;DHT22;21818;51.078;12.108;2023-02-03T03:39:59;10.90;84.40
35700;DHT22;21818;51.078;12.108;2023-02-03T03:42:38;10.90;84.40
35700;DHT22;21818;51.078;12.108;2023-02-03T03:45:18;10.90;84.40
35700;DHT22;21818;51.078;12.108;2023-02-03T03:48:00;10.90;84.50
35700;DHT22;21818;51.078;12.108;2023-02-03T03:50:52;10.90;85.10
35700;DHT22;21818;51.078;12.108;2023-02-03T03:53:16;10.90;84.50
35700;DHT22;21818;51.078;12.108;2023-02-03T03:55:46;10.90;84.60
35700;DHT22;21818;51.078;12.108;2023-02-03T03:58:22;10.90;84.80
35700;DHT22;21818;51.078;12.108;2023-02-03T04:00:49;10.90;84.80
35700;DHT22;21818;51.078;12.108;2023-02-03T04:03:20;10.90;84.80
35700;DHT22;21818;51.078;12.108;2023-02-03T04:05:47;10.90;84.90
35700;DHT22;21818;51.078;12.108;2023-02-03T04:08:12;10.90;85.00
35700;DHT22;21818;51.078;12.108;2023-02-03T04:10:40;10.90;85.00
35700;DHT22;21818;51.078;12.108;2023-02-03T04:13:08;10.90;84.90
35700;DHT22;21818;51.078;12.108;2023-02-03T04:15:34;10.90;85.10
35700;DHT22;21818;51.078;12.108;2023-02-03T04:18:00;10.90;85.10
35700;DHT22;21818;51.078;12.108;2023-02-03T04:20:27;10.90;85.10
35700;DHT22;21818;51.078;12.108;2023-02-03T04:22:53;10.90;85.00
35700;DHT22;21818;51.078;12.108;2023-02-03T04:25:19;10.90;85.00
35700;DHT22;21818;51.078;12.108;2023-02-03T04:27:45;10.90;85.20
35700;DHT22;21818;51.078;12.108;2023-02-03T04:30:11;10.90;85.20
35700;DHT22;21818;51.078;12.108;2023-02-03T04:32:37;10.90;85.30
35700;DHT22;21818;51.078;12.108;2023-02-03T04:35:03;10.90;85.10
35700;DHT22;21818;51.078;12.108;2023-02-03T04:37:29;11.00;85.20
35700;DHT22;21818;51.078;12.108;2023-02-03T04:39:56;11.00;85.20
35700;DHT22;21818;51.078;12.108;2023-02-03T04:42:22;11.00;85.20
35700;DHT22;21818;51.078;12.108;2023-02-03T04:44:48;11.00;85.20
35700;DHT22;21818;51.078;12.108;2023-02-03T04:47:13;11.00;85.30
35700;DHT22;21818;51.078;12.108;2023-02-03T04:49:39;11.00;85.40
35700;DHT22;21818;51.078;12.108;2023-02-03T04:52:05;11.00;85.50
35700;DHT22;21818;51.078;12.108;2023-02-03T04:54:31;11.00;85.50
35700;DHT22;21818;51.078;12.108;2023-02-03T04:56:56;11.00;85.50
35700;DHT22;21818;51.078;12.108;2023-02-03T04:59:22;11.00;85.60
35700;DHT22;21818;51.078;12.108;2023-02-03T05:01:48;11.00;85.70
35700;DHT22;21818;51.078;12.108;2023-02-03T05:04:13;11.00;85.80
35700;DHT22;21818;51.078;12.108;2023-02-03T05:06:39;11.00;85.80
35700;DHT22;21818;51.078;12.108;2023-02-03T05:09:04;11.00;85.80
35700;DHT22;21818;51.078;12.108;2023-02-03T05:11:30;11.00;85.80
35700;DHT22;21818;51.078;12.108;2023-02-03T05:13:56;11.00;85.90
35700;DHT22;21818;51.078;12.108;2023-02-03T05:16:22;11.00;86.10
35700;DHT22;21818;51.078;12.108;2023-02-03T05:18:47;11.00;86.20
35700;DHT22;21818;51.078;12.108;2023-02-03T05:21:13;11.00;86.20
35700;DHT22;21818;51.078;12.108;2023-02-03T05:23:38;11.10;86.20
35700;DHT22;21818;51.078;12.108;2023-02-03T05:26:04;11.00;86.20
35700;DHT22;21818;51.078;12.108;2023-02-03T05:28:30;11.10;86.20
35700;DHT22;21818;51.078;12.108;2023-02-03T05:30:59;11.10;86.10
35700;DHT22;21818;51.078;12.108;2023-02-03T05:33:24;11.10;86.20
35700;DHT22;21818;51.078;12.108;2023-02-03T05:35:50;11.10;86.20
35700;DHT22;21818;51.078;12.108;2023-02-03T05:38:16;11.10;86.20
35700;DHT22;21818;51.078;12.108;2023-02-03T05:40:41;11.10;86.20
35700;DHT22;21818;51.078;12.108;2023-02-03T05:43:27;11.10;86.30
35700;DHT22;21818;51.078;12.108;2023-02-03T05:45:53;11.00;86.20
35700;DHT22;21818;51.078;12.108;2023-02-03T05:48:18;11.10;86.30
35700;DHT22;21818;51.078;12.108;2023-02-03T05:50:44;11.10;86.30
35700;DHT22;21818;51.078;12.108;2023-02-03T05:53:09;11.20;86.20
35700;DHT22;21818;51.078;12.108;2023-02-03T05:55:35;11.10;86.10
35700;DHT22;21818;51.078;12.108;2023-02-03T05:58:03;11.00;86.20
35700;DHT22;21818;51.078;12.108;2023-02-03T06:00:29;11.10;86.30
35700;DHT22;21818;51.078;12.108;2023-02-03T06:02:57;11.10;86.10
35700;DHT22;21818;51.078;12.108;2023-02-03T06:05:24;11.10;86.20
35700;DHT22;21818;51.078;12.108;2023-02-03T06:07:50;11.10;86.10
35700;DHT22;21818;51.078;12.108;2023-02-03T06:10:16;11.20;86.10
35700;DHT22;21818;51.078;12.108;2023-02-03T06:12:42;11.20;86.10
35700;DHT22;21818;51.078;12.108;2023-02-03T06:15:08;11.10;86.00
35700;DHT22;21818;51.078;12.108;2023-02-03T06:17:34;11.10;86.10
35700;DHT22;21818;51.078;12.108;2023-02-03T06:20:02;11.20;86.10
35700;DHT22;21818;51.078;12.108;2023-02-03T06:22:27;11.20;86.00
35700;DHT22;21818;51.078;12.108;2023-02-03T06:24:53;11.20;86.00
35700;DHT22;21818;51.078;12.108;2023-02-03T06:27:19;11.20;85.90
35700;DHT22;21818;51.078;12.108;2023-02-03T06:29:44;11.20;85.80
35700;DHT22;21818;51.078;12.108;2023-02-03T06:32:10;11.10;85.80
35700;DHT22;21818;51.078;12.108;2023-02-03T06:34:35;11.10;85.80
35700;DHT22;21818;51.078;12.108;2023-02-03T06:37:01;11.20;85.80
35700;DHT22;21818;51.078;12.108;2023-02-03T06:39:26;11.20;85.70
35700;DHT22;21818;51.078;12.108;2023-02-03T06:41:52;11.20;85.50
35700;DHT22;21818;51.078;12.108;2023-02-03T06:44:17;11.20;85.40
35700;DHT22;21818;51.078;12.108;2023-02-03T06:46:43;11.20;85.30
35700;DHT22;21818;51.078;12.108;2023-02-03T06:49:09;11.20;85.10
35700;DHT22;21818;51.078;12.108;2023-02-03T06:51:35;11.30;85.00
35700;DHT22;21818;51.078;12.108;2023-02-03T06:54:01;11.30;84.80
35700;DHT22;21818;51.078;12.108;2023-02-03T06:56:28;11.40;84.70
35700;DHT22;21818;51.078;12.108;2023-02-03T06:58:53;11.40;84.50
35700;DHT22;21818;51.078;12.108;2023-02-03T07:01:19;11.50;84.50
35700;DHT22;21818;51.078;12.108;2023-02-03T07:03:44;11.60;84.30
35700;DHT22;21818;51.078;12.108;2023-02-03T07:06:11;11.60;84.10
35700;DHT22;21818;51.078;12.108;2023-02-03T07:08:37;11.70;84.10
35700;DHT22;21818;51.078;12.108;2023-02-03T07:11:02;11.70;84.00
35700;DHT22;21818;51.078;12.108;2023-02-03T07:13:28;11.70;83.90
35700;DHT22;21818;51.078;12.108;2023-02-03T07:15:53;11.80;83.90
35700;DHT22;21818;51.078;12.108;2023-02-03T07:18:19;11.70;83.80
35700;DHT22;21818;51.078;12.108;2023-02-03T07:20:49;11.70;83.70
35700;DHT22;21818;51.078;12.108;2023-02-03T07:23:15;11.80;83.80
35700;DHT22;21818;51.078;12.108;2023-02-03T07:25:41;11.80;83.50
35700;DHT22;21818;51.078;12.108;2023-02-03T07:28:06;11.90;83.40
35700;DHT22;21818;51.078;12.108;2023-02-03T07:30:32;11.90;83.20
35700;DHT22;21818;51.078;12.108;2023-02-03T07:32:57;11.90;83.00
35700;DHT22;21818;51.078;12.108;2023-02-03T07:35:23;11.90;83.00
35700;DHT22;21818;51.078;12.108;2023-02-03T07:37:49;11.90;83.00
35700;DHT22;21818;51.078;12.108;2023-02-03T07:40:15;12.00;82.90
35700;DHT22;21818;51.078;12.108;2023-02-03T07:42:42;12.00;82.70
35700;DHT22;21818;51.078;12.108;2023-02-03T07:45:09;12.00;82.60
35700;DHT22;21818;51.078;12.108;2023-02-03T07:47:35;12.10;82.50
35700;DHT22;21818;51.078;12.108;2023-02-03T07:50:02;12.10;82.40
35700;DHT22;21818;51.078;12.108;2023-02-03T07:52:27;12.10;82.20
35700;DHT22;21818;51.078;12.108;2023-02-03T07:54:53;12.10;82.20
35700;DHT22;21818;51.078;12.108;2023-02-03T07:57:18;12.10;82.20
35700;DHT22;21818;51.078;12.108;2023-02-03T07:59:44;12.10;82.10
35700;DHT22;21818;51.078;12.108;2023-02-03T08:02:09;12.20;82.10
35700;DHT22;21818;51.078;12.108;2023-02-03T08:04:38;12.20;82.00
35700;DHT22;21818;51.078;12.108;2023-02-03T08:07:03;12.20;82.30
35700;DHT22;21818;51.078;12.108;2023-02-03T08:09:29;12.20;81.80
35700;DHT22;21818;51.078;12.108;2023-02-03T08:11:55;12.20;81.70
35700;DHT22;21818;51.078;12.108;2023-02-03T08:14:20;12.20;81.70
35700;DHT22;21818;51.078;12.108;2023-02-03T08:16:46;12.20;81.60
35700;DHT22;21818;51.078;12.108;2023-02-03T08:19:11;12.20;81.60
35700;DHT22;21818;51.078;12.108;2023-02-03T08:21:37;12.20;81.50
35700;DHT22;21818;51.078;12.108;2023-02-03T08:24:03;12.20;81.50
35700;DHT22;21818;51.078;12.108;2023-02-03T08:26:29;12.20;81.40
35700;DHT22;21818;51.078;12.108;2023-02-03T08:28:55;12.30;81.40
35700;DHT22;21818;51.078;12.108;2023-02-03T08:31:20;12.30;81.20
35700;DHT22;21818;51.078;12.108;2023-02-03T08:33:46;12.30;81.20
35700;DHT22;21818;51.078;12.108;2023-02-03T08:36:11;12.30;81.20
35700;DHT22;21818;51.078;12.108;2023-02-03T08:38:38;12.30;81.10
35700;DHT22;21818;51.078;12.108;2023-02-03T08:41:08;12.30;81.10
35700;DHT22;21818;51.078;12.108;2023-02-03T08:43:34;12.30;81.00
35700;DHT22;21818;51.078;12.108;2023-02-03T08:46:05;12.30;81.00
35700;DHT22;21818;51.078;12.108;2023-02-03T08:48:31;12.40;80.80
35700;DHT22;21818;51.078;12.108;2023-02-03T08:50:57;12.40;80.70
35700;DHT22;21818;51.078;12.108;2023-02-03T08:53:23;12.40;80.70
35700;DHT22;21818;51.078;12.108;2023-02-03T08:55:49;12.40;80.60
35700;DHT22;21818;51.078;12.108;2023-02-03T08:58:14;12.40;80.60
35700;DHT22;21818;51.078;12.108;2023-02-03T09:00:40;12.40;81.10
35700;DHT22;21818;51.078;12.108;2023-02-03T09:03:06;12.40;80.50
35700;DHT22;21818;51.078;12.108;2023-02-03T09:05:32;12.40;80.50
35700;DHT22;21818;51.078;12.108;2023-02-03T09:07:58;12.40;80.40
35700;DHT22;21818;51.078;12.108;2023-02-03T09:10:23;12.50;80.40
35700;DHT22;21818;51.078;12.108;2023-02-03T09:12:49;12.40;80.30
35700;DHT22;21818;51.078;12.108;2023-02-03T09:15:14;12.40;80.30
35700;DHT22;21818;51.078;12.108;2023-02-03T09:17:40;12.50;80.30
35700;DHT22;21818;51.078;12.108;2023-02-03T09:20:06;12.50;80.20
35700;DHT22;21818;51.078;12.108;2023-02-03T09:22:32;12.50;80.10
35700;DHT22;21818;51.078;12.108;2023-02-03T09:24:57;12.50;80.00
35700;DHT22;21818;51.078;12.108;2023-02-03T09:27:23;12.50;80.10
35700;DHT22;21818;51.078;12.108;2023-02-03T09:29:48;12.50;80.10
35700;DHT22;21818;51.078;12.108;2023-02-03T09:32:14;12.50;80.10
35700;DHT22;21818;51.078;12.108;2023-02-03T09:34:39;12.50;80.00
35700;DHT22;21818;51.078;12.108;2023-02-03T09:37:06;12.50;80.00
35700;DHT22;21818;51.078;12.108;2023-02-03T09:39:32;12.50;79.90
35700;DHT22;21818;51.078;12.108;2023-02-03T09:42:27;12.50;79.80
35700;DHT22;21818;51.078;12.108;2023-02-03T09:45:04;12.50;79.80
35700;DHT22;21818;51.078;12.108;2023-02-03T09:47:35;12.50;79.70
35700;DHT22;21818;51.078;12.108;2023-02-03T09:50:05;12.50;79.70
35700;DHT22;21818;51.078;12.108;2023-02-03T09:52:34;12.50;79.70
35700;DHT22;21818;51.078;12.108;2023-02-03T09:58:18;12.50;79.70
35700;DHT22;21818;51.078;12.108;2023-02-03T10:00:47;12.50;79.60
35700;DHT22;21818;51.078;12.108;2023-02-03T10:03:28;12.50;79.50
35700;DHT22;21818;51.078;12.108;2023-02-03T10:09:10;12.60;79.50
35700;DHT22;21818;51.078;12.108;2023-02-03T10:12:13;12.50;79.30
35700;DHT22;21818;51.078;12.108;2023-02-03T10:17:23;12.60;79.40
35700;DHT22;21818;51.078;12.108;2023-02-03T10:22:25;12.60;79.40
35700;DHT22;21818;51.078;12.108;2023-02-03T10:27:28;12.60;79.40
35700;DHT22;21818;51.078;12.108;2023-02-03T10:32:42;12.60;79.30
35700;DHT22;21818;51.078;12.108;2023-02-03T10:35:11;12.60;79.30
35700;DHT22;21818;51.078;12.108;2023-02-03T10:37:48;12.60;79.30
35700;DHT22;21818;51.078;12.108;2023-02-03T10:40:15;12.60;79.20
35700;DHT22;21818;51.078;12.108;2023-02-03T10:42:46;12.60;79.20
35700;DHT22;21818;51.078;12.108;2023-02-03T10:45:35;12.60;79.20
35700;DHT22;21818;51.078;12.108;2023-02-03T10:48:02;12.60;79.30
35700;DHT22;21818;51.078;12.108;2023-02-03T10:50:28;12.60;79.30
35700;DHT22;21818;51.078;12.108;2023-02-03T10:53:23;12.60;79.30
35700;DHT22;21818;51.078;12.108;2023-02-03T10:55:58;12.60;79.30
35700;DHT22;21818;51.078;12.108;2023-02-03T10:58:28;12.60;79.40
35700;DHT22;21818;51.078;12.108;2023-02-03T11:01:02;12.60;79.30
35700;DHT22;21818;51.078;12.108;2023-02-03T11:03:28;12.60;79.30
35700;DHT22;21818;51.078;12.108;2023-02-03T11:06:13;12.60;79.30
35700;DHT22;21818;51.078;12.108;2023-02-03T11:08:45;12.60;79.40
35700;DHT22;21818;51.078;12.108;2023-02-03T11:11:15;12.60;79.40
35700;DHT22;21818;51.078;12.108;2023-02-03T11:13:44;12.60;79.30
35700;DHT22;21818;51.078;12.108;2023-02-03T11:16:15;12.50;79.40
35700;DHT22;21818;51.078;12.108;2023-02-03T11:18:54;12.60;79.40
35700;DHT22;21818;51.078;12.108;2023-02-03T11:24:07;12.60;79.40
35700;DHT22;21818;51.078;12.108;2023-02-03T11:26:39;12.60;79.30
35700;DHT22;21818;51.078;12.108;2023-02-03T11:29:13;12.70;79.10
35700;DHT22;21818;51.078;12.108;2023-02-03T11:31:39;12.70;79.00
35700;DHT22;21818;51.078;12.108;2023-02-03T11:34:16;12.70;79.00
35700;DHT22;21818;51.078;12.108;2023-02-03T11:36:43;12.70;79.00
35700;DHT22;21818;51.078;12.108;2023-02-03T11:39:09;12.70;79.00
35700;DHT22;21818;51.078;12.108;2023-02-03T11:41:38;12.70;79.00
35700;DHT22;21818;51.078;12.108;2023-02-03T11:44:44;12.70;79.00
35700;DHT22;21818;51.078;12.108;2023-02-03T11:47:07;12.70;79.00
35700;DHT22;21818;51.078;12.108;2023-02-03T11:52:32;12.70;78.80
35700;DHT22;21818;51.078;12.108;2023-02-03T11:58:10;12.70;78.90
35700;DHT22;21818;51.078;12.108;2023-02-03T12:01:09;12.70;79.00
35700;DHT22;21818;51.078;12.108;2023-02-03T12:03:54;12.70;79.20
35700;DHT22;21818;51.078;12.108;2023-02-03T12:06:55;12.60;79.30
35700;DHT22;21818;51.078;12.108;2023-02-03T12:12:24;12.60;79.60
35700;DHT22;21818;51.078;12.108;2023-02-03T12:17:36;12.50;79.90
35700;DHT22;21818;51.078;12.108;2023-02-03T12:20:43;12.50;80.00
35700;DHT22;21818;51.078;12.108;2023-02-03T12:26:04;12.50;80.10
35700;DHT22;21818;51.078;12.108;2023-02-03T12:31:29;12.50;80.20
35700;DHT22;21818;51.078;12.108;2023-02-03T12:34:10;12.60;80.30
35700;DHT22;21818;51.078;12.108;2023-02-03T12:36:42;12.50;80.20
35700;DHT22;21818;51.078;12.108;2023-02-03T12:40:00;12.50;80.20
35700;DHT22;21818;51.078;12.108;2023-02-03T12:42:16;12.50;80.30
35700;DHT22;21818;51.078;12.108;2023-02-03T12:44:57;12.50;80.40
35700;DHT22;21818;51.078;12.108;2023-02-03T12:47:48;12.50;80.40
35700;DHT22;21818;51.078;12.108;2023-02-03T12:53:05;12.50;80.30
35700;DHT22;21818;51.078;12.108;2023-02-03T12:55:51;12.50;80.30
35700;DHT22;21818;51.078;12.108;2023-02-03T12:58:31;12.60;80.40
35700;DHT22;21818;51.078;12.108;2023-02-03T13:01:21;12.60;80.50
35700;DHT22;21818;51.078;12.108;2023-02-03T13:04:11;12.60;80.50
35700;DHT22;21818;51.078;12.108;2023-02-03T13:06:59;12.60;80.50
35700;DHT22;21818;51.078;12.108;2023-02-03T13:09:47;12.60;80.50
35700;DHT22;21818;51.078;12.108;2023-02-03T13:12:27;12.60;80.50
35700;DHT22;21818;51.078;12.108;2023-02-03T13:20:18;12.60;80.60
35700;DHT22;21818;51.078;12.108;2023-02-03T13:22:44;12.60;80.70
35700;DHT22;21818;51.078;12.108;2023-02-03T13:25:21;12.60;80.50
35700;DHT22;21818;51.078;12.108;2023-02-03T13:28:15;12.60;80.40
35700;DHT22;21818;51.078;12.108;2023-02-03T13:31:03;12.60;80.30
35700;DHT22;21818;51.078;12.108;2023-02-03T13:41:47;12.70;79.90
35700;DHT22;21818;51.078;12.108;2023-02-03T13:44:17;12.70;79.90
35700;DHT22;21818;51.078;12.108;2023-02-03T13:46:47;12.80;79.80
35700;DHT22;21818;51.078;12.108;2023-02-03T13:49:23;12.70;79.80
35700;DHT22;21818;51.078;12.108;2023-02-03T13:51:50;12.80;79.80
35700;DHT22;21818;51.078;12.108;2023-02-03T13:54:25;12.70;79.70
35700;DHT22;21818;51.078;12.108;2023-02-03T13:56:54;12.80;79.70
35700;DHT22;21818;51.078;12.108;2023-02-03T14:07:34;12.70;79.60
35700;DHT22;21818;51.078;12.108;2023-02-03T14:10:19;12.70;79.70
35700;DHT22;21818;51.078;12.108;2023-02-03T14:17:58;12.60;80.00
35700;DHT22;21818;51.078;12.108;2023-02-03T14:23:07;12.60;80.20
35700;DHT22;21818;51.078;12.108;2023-02-03T14:25:47;12.60;80.70
35700;DHT22;21818;51.078;12.108;2023-02-03T14:28:20;12.60;80.10
35700;DHT22;21818;51.078;12.108;2023-02-03T14:31:02;12.60;80.10
35700;DHT22;21818;51.078;12.108;2023-02-03T14:38:53;12.60;80.20
35700;DHT22;21818;51.078;12.108;2023-02-03T14:41:30;12.60;80.10
35700;DHT22;21818;51.078;12.108;2023-02-03T14:52:17;12.60;79.50
35700;DHT22;21818;51.078;12.108;2023-02-03T14:57:28;12.60;79.50
35700;DHT22;21818;51.078;12.108;2023-02-03T15:00:03;12.60;79.50
35700;DHT22;21818;51.078;12.108;2023-02-03T15:02:31;12.60;79.40
35700;DHT22;21818;51.078;12.108;2023-02-03T15:07:46;12.60;79.40
35700;DHT22;21818;51.078;12.108;2023-02-03T15:10:18;12.60;79.50
35700;DHT22;21818;51.078;12.108;2023-02-03T15:12:52;12.60;79.40
35700;DHT22;21818;51.078;12.108;2023-02-03T15:15:24;12.60;79.30
35700;DHT22;21818;51.078;12.108;2023-02-03T15:17:55;12.60;79.20
35700;DHT22;21818;51.078;12.108;2023-02-03T15:20:40;12.60;79.10
35700;DHT22;21818;51.078;12.108;2023-02-03T15:23:25;12.60;79.00
35700;DHT22;21818;51.078;12.108;2023-02-03T15:25:59;12.60;79.10
35700;DHT22;21818;51.078;12.108;2023-02-03T15:28:27;12.60;79.10
35700;DHT22;21818;51.078;12.108;2023-02-03T15:30:57;12.60;79.00
35700;DHT22;21818;51.078;12.108;2023-02-03T15:33:24;12.60;79.00
35700;DHT22;21818;51.078;12.108;2023-02-03T15:36:04;12.60;79.00
35700;DHT22;21818;51.078;12.108;2023-02-03T15:38:45;12.60;78.80
35700;DHT22;21818;51.078;12.108;2023-02-03T15:41:21;12.70;78.70
35700;DHT22;21818;51.078;12.108;2023-02-03T15:43:50;12.80;78.50
35700;DHT22;21818;51.078;12.108;2023-02-03T15:46:27;12.80;78.30
35700;DHT22;21818;51.078;12.108;2023-02-03T15:49:12;12.80;78.20
35700;DHT22;21818;51.078;12.108;2023-02-03T15:51:43;12.80;78.20
35700;DHT22;21818;51.078;12.108;2023-02-03T15:54:50;12.80;78.20
35700;DHT22;21818;51.078;12.108;2023-02-03T15:59:54;12.80;78.10
35700;DHT22;21818;51.078;12.108;2023-02-03T16:02:34;12.80;78.00
35700;DHT22;21818;51.078;12.108;2023-02-03T16:05:10;12.70;78.00
35700;DHT22;21818;51.078;12.108;2023-02-03T16:07:39;12.80;78.00
35700;DHT22;21818;51.078;12.108;2023-02-03T16:10:05;12.80;78.00
35700;DHT22;21818;51.078;12.108;2023-02-03T16:12:32;12.80;77.90
35700;DHT22;21818;51.078;12.108;2023-02-03T16:14:59;12.80;77.80
35700;DHT22;21818;51.078;12.108;2023-02-03T16:22:37;12.80;77.80
35700;DHT22;21818;51.078;12.108;2023-02-03T16:25:18;12.70;77.80
35700;DHT22;21818;51.078;12.108;2023-02-03T16:27:53;12.70;77.90
35700;DHT22;21818;51.078;12.108;2023-02-03T16:30:37;12.70;77.90
35700;DHT22;21818;51.078;12.108;2023-02-03T16:33:21;12.70;77.90
35700;DHT22;21818;51.078;12.108;2023-02-03T16:36:12;12.60;78.00
35700;DHT22;21818;51.078;12.108;2023-02-03T16:38:57;12.60;78.10
35700;DHT22;21818;51.078;12.108;2023-02-03T16:41:43;12.70;78.00
35700;DHT22;21818;51.078;12.108;2023-02-03T16:44:27;12.70;77.90
35700;DHT22;21818;51.078;12.108;2023-02-03T16:47:26;12.60;78.00
35700;DHT22;21818;51.078;12.108;2023-02-03T16:50:12;12.60;78.10
35700;DHT22;21818;51.078;12.108;2023-02-03T16:52:56;12.60;78.00
35700;DHT22;21818;51.078;12.108;2023-02-03T16:55:22;12.60;78.10
35700;DHT22;21818;51.078;12.108;2023-02-03T16:57:47;12.60;78.00
35700;DHT22;21818;51.078;12.108;2023-02-03T17:00:16;12.60;78.00
35700;DHT22;21818;51.078;12.108;2023-02-03T17:02:42;12.60;78.50
35700;DHT22;21818;51.078;12.108;2023-02-03T17:05:07;12.60;77.90
35700;DHT22;21818;51.078;12.108;2023-02-03T17:07:33;12.60;77.90
35700;DHT22;21818;51.078;12.108;2023-02-03T17:09:59;12.60;78.50
35700;DHT22;21818;51.078;12.108;2023-02-03T17:12:24;12.60;77.90
35700;DHT22;21818;51.078;12.108;2023-02-03T17:14:50;12.60;77.90
35700;DHT22;21818;51.078;12.108;2023-02-03T17:17:16;12.60;77.80
35700;DHT22;21818;51.078;12.108;2023-02-03T17:19:42;12.60;77.80
35700;DHT22;21818;51.078;12.108;2023-02-03T17:22:07;12.60;77.80
35700;DHT22;21818;51.078;12.108;2023-02-03T17:24:34;12.60;77.80
35700;DHT22;21818;51.078;12.108;2023-02-03T17:26:59;12.70;77.70
35700;DHT22;21818;51.078;12.108;2023-02-03T17:29:25;12.70;77.50
35700;DHT22;21818;51.078;12.108;2023-02-03T17:31:50;12.80;77.40
35700;DHT22;21818;51.078;12.108;2023-02-03T17:34:16;12.80;77.30
35700;DHT22;21818;51.078;12.108;2023-02-03T17:36:42;12.80;77.20
35700;DHT22;21818;51.078;12.108;2023-02-03T17:39:07;12.80;77.20
35700;DHT22;21818;51.078;12.108;2023-02-03T17:41:33;12.80;77.10
35700;DHT22;21818;51.078;12.108;2023-02-03T17:43:59;12.80;77.10